createdAt,value
2018-06-15T00:01:00.416Z,25.82
2018-06-15T00:03:26.404Z,25.81
2018-06-15T00:05:52.387Z,25.81
2018-06-15T00:08:18.384Z,25.81
2018-06-15T00:10:44.372Z,25.80
2018-06-15T00:13:10.350Z,25.81
2018-06-15T00:15:36.330Z,25.80
2018-06-15T00:18:02.317Z,25.81
2018-06-15T00:20:28.294Z,25.80
2018-06-15T00:22:54.278Z,25.80
2018-06-15T00:25:20.257Z,25.80
2018-06-15T00:27:46.235Z,25.80
2018-06-15T00:30:12.215Z,25.80
2018-06-15T00:32:38.193Z,25.79
2018-06-15T00:35:04.176Z,25.79
2018-06-15T00:37:30.163Z,25.79
2018-06-15T00:39:56.171Z,25.79
2018-06-15T00:42:22.147Z,25.80
2018-06-15T00:44:48.126Z,25.79
2018-06-15T00:47:14.111Z,25.79
2018-06-15T00:49:40.114Z,25.78
2018-06-15T00:52:06.104Z,25.78
2018-06-15T00:54:32.123Z,25.78
2018-06-15T00:56:58.097Z,25.78
2018-06-15T00:59:24.074Z,25.77
2018-06-15T01:01:50.066Z,25.77
2018-06-15T01:04:16.050Z,25.78
2018-06-15T01:06:42.035Z,25.77
2018-06-15T01:09:08.016Z,25.77
2018-06-15T01:11:33.997Z,25.77
2018-06-15T01:13:59.996Z,25.77
2018-06-15T01:16:25.979Z,25.76
2018-06-15T01:18:51.963Z,25.77
2018-06-15T01:21:17.949Z,25.76
2018-06-15T01:23:43.948Z,25.76
2018-06-15T01:26:09.935Z,25.76
2018-06-15T01:28:35.920Z,25.76
2018-06-15T01:31:01.905Z,25.76
2018-06-15T01:33:27.879Z,25.77
2018-06-15T01:35:53.951Z,25.76
2018-06-15T01:38:19.932Z,25.76
2018-06-15T01:40:45.907Z,25.75
2018-06-15T01:43:11.894Z,25.75
2018-06-15T01:45:37.881Z,25.75
2018-06-15T01:48:03.875Z,25.75
2018-06-15T01:50:29.849Z,25.75
2018-06-15T01:52:55.832Z,25.74
2018-06-15T01:55:21.817Z,25.75
2018-06-15T01:57:47.799Z,25.75
2018-06-15T02:00:13.787Z,25.75
2018-06-15T02:02:39.770Z,25.74
2018-06-15T02:05:05.753Z,25.74
2018-06-15T02:07:31.729Z,25.74
2018-06-15T02:09:57.762Z,25.74
2018-06-15T02:12:23.756Z,25.73
2018-06-15T02:14:49.736Z,25.74
2018-06-15T02:17:15.716Z,25.73
2018-06-15T02:19:41.696Z,25.73
2018-06-15T02:22:07.683Z,25.73
2018-06-15T02:24:33.668Z,25.73
2018-06-15T02:26:59.651Z,25.73
2018-06-15T02:29:25.632Z,25.73
2018-06-15T02:31:51.612Z,25.73
2018-06-15T02:34:17.595Z,25.72
2018-06-15T02:36:43.584Z,25.72
2018-06-15T02:39:09.567Z,25.72
2018-06-15T02:41:35.546Z,25.72
2018-06-15T02:44:01.531Z,25.72
2018-06-15T02:46:27.536Z,25.72
2018-06-15T02:48:53.559Z,25.72
2018-06-15T02:51:19.537Z,25.72
2018-06-15T02:53:45.516Z,25.72
2018-06-15T02:56:11.501Z,25.71
2018-06-15T02:58:37.481Z,25.71
2018-06-15T03:01:03.481Z,25.71
2018-06-15T03:03:29.466Z,25.71
2018-06-15T03:05:55.445Z,25.71
2018-06-15T03:08:21.483Z,25.70
2018-06-15T03:10:47.468Z,25.71
2018-06-15T03:13:13.451Z,25.70
2018-06-15T03:15:39.447Z,25.70
2018-06-15T03:18:05.419Z,25.70
2018-06-15T03:20:31.408Z,25.70
2018-06-15T03:22:57.454Z,25.70
2018-06-15T03:25:23.442Z,25.69
2018-06-15T03:27:49.434Z,25.70
2018-06-15T03:30:15.444Z,25.70
2018-06-15T03:32:41.424Z,25.69
2018-06-15T03:35:07.406Z,25.70
2018-06-15T03:37:33.405Z,25.70
2018-06-15T03:39:59.380Z,25.71
2018-06-15T03:42:25.369Z,25.71
2018-06-15T03:44:51.359Z,25.71
2018-06-15T03:47:17.349Z,25.71
2018-06-15T03:49:43.329Z,25.71
2018-06-15T03:52:09.316Z,25.71
2018-06-15T03:54:35.299Z,25.72
2018-06-15T03:57:01.284Z,25.73
2018-06-15T03:59:27.263Z,25.74
2018-06-15T04:01:53.244Z,25.74
2018-06-15T04:04:19.268Z,25.74
2018-06-15T04:06:45.247Z,25.75
2018-06-15T04:09:11.230Z,25.75
2018-06-15T04:11:37.216Z,25.76
2018-06-15T04:14:03.199Z,25.76
2018-06-15T04:16:29.180Z,25.77
2018-06-15T04:18:55.172Z,25.78
2018-06-15T04:21:21.158Z,25.80
2018-06-15T04:23:47.143Z,25.80
2018-06-15T04:26:13.127Z,25.80
2018-06-15T04:28:39.113Z,25.81
2018-06-15T04:31:05.098Z,25.82
2018-06-15T04:33:31.087Z,25.82
2018-06-15T04:35:57.116Z,25.82
2018-06-15T04:38:23.107Z,25.82
2018-06-15T04:40:49.093Z,25.82
2018-06-15T04:43:15.129Z,25.82
2018-06-15T04:45:41.126Z,25.83
2018-06-15T04:48:07.140Z,25.83
2018-06-15T04:50:33.127Z,25.82
2018-06-15T04:52:59.149Z,25.81
2018-06-15T04:55:25.124Z,25.81
2018-06-15T04:57:51.129Z,25.80
2018-06-15T05:00:17.124Z,25.80
2018-06-15T05:02:43.107Z,25.79
2018-06-15T05:05:09.095Z,25.80
2018-06-15T05:07:35.078Z,25.81
2018-06-15T05:10:01.060Z,25.80
2018-06-15T05:12:27.061Z,25.80
2018-06-15T05:14:53.048Z,25.80
2018-06-15T05:17:19.077Z,25.81
2018-06-15T05:19:45.054Z,25.80
2018-06-15T05:22:11.017Z,25.81
2018-06-15T05:24:37.017Z,25.80
2018-06-15T05:27:03.000Z,25.80
2018-06-15T05:29:29.122Z,25.80
2018-06-15T05:31:55.055Z,25.80
2018-06-15T05:34:21.036Z,25.81
2018-06-15T05:36:47.082Z,25.80
2018-06-15T05:39:13.066Z,25.80
2018-06-15T05:41:39.054Z,25.80
2018-06-15T05:44:05.035Z,25.80
2018-06-15T05:46:31.018Z,25.80
2018-06-15T05:48:57.003Z,25.80
2018-06-15T05:51:22.989Z,25.79
2018-06-15T05:53:48.961Z,25.79
2018-06-15T05:56:14.941Z,25.78
2018-06-15T05:58:40.937Z,25.79
2018-06-15T06:01:06.953Z,25.78
2018-06-15T06:03:32.911Z,25.78
2018-06-15T06:05:58.895Z,25.77
2018-06-15T06:08:24.880Z,25.77
2018-06-15T06:10:50.888Z,25.77
2018-06-15T06:13:16.887Z,25.77
2018-06-15T06:15:42.874Z,25.76
2018-06-15T06:18:08.931Z,25.76
2018-06-15T06:20:34.914Z,25.76
2018-06-15T06:23:00.935Z,25.76
2018-06-15T06:25:26.896Z,25.77
2018-06-15T06:27:52.874Z,25.77
2018-06-15T06:30:18.890Z,25.78
2018-06-15T06:32:44.836Z,25.79
2018-06-15T06:35:10.819Z,25.79
2018-06-15T06:37:36.797Z,25.79
2018-06-15T06:40:02.774Z,25.79
2018-06-15T06:42:28.769Z,25.79
2018-06-15T06:44:54.769Z,25.79
2018-06-15T06:47:20.748Z,25.79
2018-06-15T06:49:46.733Z,25.80
2018-06-15T06:52:12.720Z,25.80
2018-06-15T06:54:38.715Z,25.79
2018-06-15T06:57:04.706Z,25.82
2018-06-15T06:59:30.718Z,25.83
2018-06-15T07:01:56.701Z,25.82
2018-06-15T07:04:22.653Z,25.82
2018-06-15T07:06:48.638Z,25.82
2018-06-15T07:09:14.623Z,25.82
2018-06-15T07:11:40.598Z,25.82
2018-06-15T07:14:06.589Z,25.82
2018-06-15T07:16:32.581Z,25.82
2018-06-15T07:18:58.562Z,25.82
2018-06-15T07:21:24.596Z,25.82
2018-06-15T07:23:50.581Z,25.82
2018-06-15T07:26:16.593Z,25.82
2018-06-15T07:28:42.581Z,25.83
2018-06-15T07:31:08.592Z,25.83
2018-06-15T07:33:34.674Z,25.82
2018-06-15T07:36:00.584Z,25.83
2018-06-15T07:38:26.571Z,25.82
2018-06-15T07:40:52.627Z,25.81
2018-06-15T07:43:18.588Z,25.81
2018-06-15T07:45:44.551Z,25.81
2018-06-15T07:48:10.563Z,25.81
2018-06-15T07:50:36.571Z,25.80
2018-06-15T07:53:02.553Z,25.80
2018-06-15T07:55:28.534Z,25.79
2018-06-15T07:57:54.518Z,25.78
2018-06-15T08:00:20.509Z,25.78
2018-06-15T08:02:46.493Z,25.78
2018-06-15T08:05:12.606Z,25.77
2018-06-15T08:07:38.585Z,25.76
2018-06-15T08:10:04.558Z,25.76
2018-06-15T08:12:30.542Z,25.75
2018-06-15T08:14:56.530Z,25.74
2018-06-15T08:17:22.515Z,25.74
2018-06-15T08:19:48.536Z,25.74
2018-06-15T08:22:14.527Z,25.73
2018-06-15T08:24:40.529Z,25.73
2018-06-15T08:27:06.514Z,25.73
2018-06-15T08:29:32.493Z,25.73
2018-06-15T08:31:58.473Z,25.73
2018-06-15T08:34:24.456Z,25.73
2018-06-15T08:36:50.467Z,25.73
2018-06-15T08:39:16.424Z,25.73
2018-06-15T08:41:42.401Z,25.73
2018-06-15T08:44:08.423Z,25.73
2018-06-15T08:46:34.387Z,25.73
2018-06-15T08:49:00.377Z,25.74
2018-06-15T08:51:26.404Z,25.74
2018-06-15T08:53:52.355Z,25.73
2018-06-15T08:56:18.342Z,25.73
2018-06-15T08:58:44.324Z,25.73
2018-06-15T09:01:10.310Z,25.73
2018-06-15T09:03:36.286Z,25.74
2018-06-15T09:06:02.297Z,25.74
2018-06-15T09:08:28.280Z,25.74
2018-06-15T09:10:54.254Z,25.74
2018-06-15T09:13:20.277Z,25.74
2018-06-15T09:15:46.282Z,25.73
2018-06-15T09:18:12.318Z,25.73
2018-06-15T09:20:38.238Z,25.72
2018-06-15T09:23:04.230Z,25.72
2018-06-15T09:25:30.205Z,25.72
2018-06-15T09:27:56.190Z,25.72
2018-06-15T09:30:22.184Z,25.71
2018-06-15T09:32:48.171Z,25.71
2018-06-15T09:35:14.165Z,25.71
2018-06-15T09:37:40.154Z,25.70
2018-06-15T09:40:06.140Z,25.71
2018-06-15T09:42:32.119Z,25.71
2018-06-15T09:44:58.114Z,25.70
2018-06-15T09:47:24.169Z,25.69
2018-06-15T09:49:50.188Z,25.69
2018-06-15T09:52:16.173Z,25.70
2018-06-15T09:54:42.155Z,25.71
2018-06-15T09:57:08.157Z,25.72
2018-06-15T09:59:34.130Z,25.72
2018-06-15T10:02:00.115Z,25.73
2018-06-15T10:04:26.109Z,25.73
2018-06-15T10:06:52.091Z,25.73
2018-06-15T10:09:18.079Z,25.73
2018-06-15T10:11:44.054Z,25.73
2018-06-15T10:14:10.041Z,25.73
2018-06-15T10:16:36.069Z,25.73
2018-06-15T10:19:02.567Z,25.73
2018-06-15T10:21:28.577Z,25.73
2018-06-15T10:23:54.597Z,25.73
2018-06-15T10:26:20.578Z,25.74
2018-06-15T10:28:47.835Z,25.74
2018-06-15T10:31:13.789Z,25.74
2018-06-15T10:33:39.818Z,25.74
2018-06-15T10:36:05.938Z,25.74
2018-06-15T10:38:31.933Z,25.75
2018-06-15T10:40:57.920Z,25.74
2018-06-15T10:43:24.560Z,25.75
2018-06-15T10:45:50.549Z,25.76
2018-06-15T10:48:16.530Z,25.77
2018-06-15T10:50:42.545Z,25.75
2018-06-15T10:53:08.536Z,25.74
2018-06-15T10:55:34.593Z,25.73
2018-06-15T10:58:00.573Z,25.74
2018-06-15T11:00:26.604Z,25.73
2018-06-15T11:02:52.747Z,25.73
2018-06-15T11:05:18.739Z,25.73
2018-06-15T11:07:44.855Z,25.74
2018-06-15T11:10:10.839Z,25.73
2018-06-15T11:12:36.995Z,25.73
2018-06-15T11:15:02.975Z,25.72
2018-06-15T11:17:29.616Z,25.72
2018-06-15T11:19:55.662Z,25.71
2018-06-15T11:22:22.799Z,25.71
2018-06-15T11:24:52.228Z,25.71
2018-06-15T11:27:19.274Z,25.71
2018-06-15T11:29:45.260Z,25.71
2018-06-15T11:32:11.279Z,25.70
2018-06-15T11:34:37.298Z,25.70
2018-06-15T11:37:03.315Z,25.69
2018-06-15T11:39:29.322Z,25.69
2018-06-15T11:41:55.338Z,25.69
2018-06-15T11:44:21.377Z,25.68
2018-06-15T11:46:47.852Z,25.68
2018-06-15T11:49:13.861Z,25.67
2018-06-15T11:51:41.662Z,25.67
2018-06-15T11:54:08.047Z,25.67
2018-06-15T11:56:34.110Z,25.66
2018-06-15T11:59:00.624Z,25.67
2018-06-15T12:01:26.956Z,25.67
2018-06-15T12:03:52.938Z,25.67
2018-06-15T12:06:21.999Z,25.66
2018-06-15T12:08:47.963Z,25.66
2018-06-15T12:11:13.983Z,25.66
2018-06-15T12:13:40.809Z,25.66
2018-06-15T12:16:06.853Z,25.66
2018-06-15T12:18:32.799Z,25.65
2018-06-15T12:21:00.016Z,25.65
2018-06-15T12:23:25.995Z,25.65
2018-06-15T12:25:51.979Z,25.66
2018-06-15T12:28:19.688Z,25.67
2018-06-15T12:30:47.561Z,25.67
2018-06-15T12:33:13.553Z,25.67
2018-06-15T12:35:39.601Z,25.68
2018-06-15T12:38:05.547Z,25.69
2018-06-15T12:40:31.529Z,25.68
2018-06-15T12:42:57.644Z,25.68
2018-06-15T12:45:23.626Z,25.69
2018-06-15T12:47:49.637Z,25.69
2018-06-15T12:50:15.589Z,25.70
2018-06-15T12:52:41.571Z,25.69
2018-06-15T12:55:07.565Z,25.69
2018-06-15T12:57:33.584Z,25.69
2018-06-15T12:59:59.708Z,25.69
2018-06-15T13:02:25.703Z,25.69
2018-06-15T13:04:51.698Z,25.70
2018-06-15T13:07:17.692Z,25.71
2018-06-15T13:09:43.671Z,25.70
2018-06-15T13:12:09.652Z,25.70
2018-06-15T13:14:36.882Z,25.70
2018-06-15T13:17:01.648Z,25.71
2018-06-15T13:19:27.661Z,25.71
2018-06-15T13:21:53.676Z,25.70
2018-06-15T13:24:19.661Z,25.70
2018-06-15T13:26:45.651Z,25.70
2018-06-15T13:29:11.622Z,25.70
2018-06-15T13:31:37.614Z,25.69
2018-06-15T13:34:03.598Z,25.69
2018-06-15T13:36:29.591Z,25.70
2018-06-15T13:38:55.578Z,25.70
2018-06-15T13:41:21.572Z,25.70
2018-06-15T13:43:47.558Z,25.70
2018-06-15T13:46:13.579Z,25.70
2018-06-15T13:48:39.549Z,25.70
2018-06-15T13:51:05.530Z,25.70
2018-06-15T13:53:31.531Z,25.70
2018-06-15T13:55:57.507Z,25.70
2018-06-15T13:58:23.493Z,25.70
2018-06-15T14:00:49.482Z,25.72
2018-06-15T14:03:15.498Z,25.73
2018-06-15T14:05:41.503Z,25.73
2018-06-15T14:08:07.504Z,25.72
2018-06-15T14:10:33.532Z,25.71
2018-06-15T14:12:59.551Z,25.71
2018-06-15T14:15:25.500Z,25.73
2018-06-15T14:17:51.517Z,25.74
2018-06-15T14:20:17.508Z,25.74
2018-06-15T14:22:43.512Z,25.75
2018-06-15T14:25:09.508Z,25.75
2018-06-15T14:27:35.460Z,25.75
2018-06-15T14:30:01.440Z,25.74
2018-06-15T14:32:27.470Z,25.75
2018-06-15T14:34:53.454Z,25.76
2018-06-15T14:37:19.432Z,25.76
2018-06-15T14:39:45.449Z,25.76
2018-06-15T14:42:11.439Z,25.76
2018-06-15T14:44:37.398Z,25.77
2018-06-15T14:47:03.419Z,25.76
2018-06-15T14:49:29.408Z,25.75
2018-06-15T14:51:55.387Z,25.75
2018-06-15T14:54:21.394Z,25.77
2018-06-15T14:56:47.438Z,25.77
2018-06-15T14:59:13.392Z,25.77
2018-06-15T15:01:39.358Z,25.76
2018-06-15T15:04:05.379Z,25.78
2018-06-15T15:06:31.359Z,25.77
2018-06-15T15:08:57.373Z,25.78
2018-06-15T15:11:23.330Z,25.77
2018-06-15T15:13:49.314Z,25.77
2018-06-15T15:16:15.300Z,25.77
2018-06-15T15:18:41.301Z,25.76
2018-06-15T15:21:07.333Z,25.76
2018-06-15T15:23:33.284Z,25.77
2018-06-15T15:25:59.267Z,25.77
2018-06-15T15:28:25.271Z,25.77
2018-06-15T15:30:51.271Z,25.76
2018-06-15T15:33:17.259Z,25.76
2018-06-15T15:35:43.274Z,25.76
2018-06-15T15:38:09.336Z,25.77
2018-06-15T15:40:35.355Z,25.76
2018-06-15T15:43:01.334Z,25.76
2018-06-15T15:45:27.288Z,25.75
2018-06-15T15:47:53.289Z,25.76
2018-06-15T15:50:19.310Z,25.75
2018-06-15T15:52:45.259Z,25.74
2018-06-15T15:55:11.249Z,25.73
2018-06-15T15:57:38.566Z,25.74
2018-06-15T16:00:04.528Z,25.75
2018-06-15T16:02:30.524Z,25.76
2018-06-15T16:04:56.531Z,25.77
2018-06-15T16:07:22.579Z,25.77
2018-06-15T16:09:48.530Z,25.77
2018-06-15T16:12:14.542Z,25.77
2018-06-15T16:14:40.558Z,25.76
2018-06-15T16:17:06.580Z,25.76
2018-06-15T16:19:32.580Z,25.75
2018-06-15T16:21:58.586Z,25.75
2018-06-15T16:24:24.581Z,25.74
2018-06-15T16:26:50.577Z,25.74
2018-06-15T16:29:16.565Z,25.73
2018-06-15T16:31:42.561Z,25.73
2018-06-15T16:34:08.545Z,25.73
2018-06-15T16:36:34.537Z,25.72
2018-06-15T16:39:00.519Z,25.72
2018-06-15T16:41:26.504Z,25.72
2018-06-15T16:43:52.490Z,25.71
2018-06-15T16:46:18.516Z,25.71
2018-06-15T16:48:44.519Z,25.71
2018-06-15T16:51:10.518Z,25.70
2018-06-15T16:53:36.494Z,25.70
2018-06-15T16:56:02.514Z,25.71
2018-06-15T16:58:28.682Z,25.71
2018-06-15T17:00:54.678Z,25.72
2018-06-15T17:03:20.729Z,25.71
2018-06-15T17:05:46.703Z,25.71
2018-06-15T17:08:12.722Z,25.71
2018-06-15T17:10:38.709Z,25.71
2018-06-15T17:13:04.720Z,25.71
2018-06-15T17:15:30.712Z,25.71
2018-06-15T17:17:56.805Z,25.72
2018-06-15T17:20:22.792Z,25.72
2018-06-15T17:22:48.732Z,25.71
2018-06-15T17:25:14.732Z,25.71
2018-06-15T17:27:40.726Z,25.72
2018-06-15T17:30:06.715Z,25.71
2018-06-15T17:32:32.707Z,25.70
2018-06-15T17:34:58.751Z,25.70
2018-06-15T17:37:24.741Z,25.69
2018-06-15T17:39:50.844Z,25.69
2018-06-15T17:42:16.807Z,25.69
2018-06-15T17:44:42.793Z,25.69
2018-06-15T17:47:08.786Z,25.68
2018-06-15T17:49:34.907Z,25.68
2018-06-15T17:52:00.944Z,25.68
2018-06-15T17:54:26.922Z,25.68
2018-06-15T17:56:52.925Z,25.68
2018-06-15T17:59:18.906Z,25.68
2018-06-15T18:01:44.895Z,25.67
2018-06-15T18:04:10.884Z,25.67
2018-06-15T18:06:36.880Z,25.66
2018-06-15T18:09:02.878Z,25.67
2018-06-15T18:11:28.900Z,25.66
2018-06-15T18:13:54.889Z,25.66
2018-06-15T18:16:20.888Z,25.66
2018-06-15T18:18:46.885Z,25.67
2018-06-15T18:21:12.923Z,25.69
2018-06-15T18:23:38.907Z,25.69
2018-06-15T18:26:04.889Z,25.72
2018-06-15T18:28:30.877Z,25.72
2018-06-15T18:30:57.024Z,25.73
2018-06-15T18:33:23.008Z,25.73
2018-06-15T18:35:49.179Z,25.73
2018-06-15T18:38:15.168Z,25.73
2018-06-15T18:40:41.186Z,25.73
2018-06-15T18:43:07.158Z,25.75
2018-06-15T18:45:33.139Z,25.77
2018-06-15T18:47:59.138Z,25.78
2018-06-15T18:50:25.126Z,25.77
2018-06-15T18:52:51.112Z,25.77
2018-06-15T18:55:17.117Z,25.77
2018-06-15T18:57:43.098Z,25.76
2018-06-15T19:00:09.076Z,25.75
2018-06-15T19:02:35.050Z,25.75
2018-06-15T19:05:01.066Z,25.76
2018-06-15T19:07:27.059Z,25.76
2018-06-15T19:09:53.049Z,25.76
2018-06-15T19:12:19.441Z,25.76
2018-06-15T19:14:45.412Z,25.76
2018-06-15T19:17:11.435Z,25.77
2018-06-15T19:19:37.418Z,25.77
2018-06-15T19:22:03.399Z,25.77
2018-06-15T19:24:29.378Z,25.77
2018-06-15T19:26:55.381Z,25.77
2018-06-15T19:29:21.354Z,25.77
2018-06-15T19:31:47.340Z,25.78
2018-06-15T19:34:13.347Z,25.77
2018-06-15T19:36:39.328Z,25.77
2018-06-15T19:39:05.308Z,25.77
2018-06-15T19:41:31.294Z,25.78
2018-06-15T19:44:00.175Z,25.78
2018-06-15T19:46:26.157Z,25.78
2018-06-15T19:48:52.165Z,25.79
2018-06-15T19:51:18.146Z,25.78
2018-06-15T19:53:44.123Z,25.78
2018-06-15T19:56:10.102Z,25.77
2018-06-15T19:58:36.076Z,25.77
2018-06-15T20:01:02.066Z,25.76
2018-06-15T20:03:28.054Z,25.76
2018-06-15T20:05:54.035Z,25.76
2018-06-15T20:08:20.032Z,25.76
2018-06-15T20:10:46.017Z,25.76
2018-06-15T20:13:12.010Z,25.77
2018-06-15T20:15:37.995Z,25.76
2018-06-15T20:18:04.597Z,25.76
2018-06-15T20:20:33.308Z,25.77
2018-06-15T20:23:00.126Z,25.76
2018-06-15T20:25:27.159Z,25.76
2018-06-15T20:27:57.063Z,25.76
2018-06-15T20:30:29.565Z,25.77
2018-06-15T20:32:58.149Z,25.78
2018-06-15T20:35:26.530Z,25.78
2018-06-15T20:37:53.683Z,25.79
2018-06-15T20:40:21.484Z,25.79
2018-06-15T20:42:48.594Z,25.78
2018-06-15T20:45:15.294Z,25.79
2018-06-15T20:50:20.280Z,25.78
2018-06-15T20:52:47.402Z,25.78
2018-06-15T20:55:14.285Z,25.78
2018-06-15T20:57:46.915Z,25.79
2018-06-15T21:00:16.518Z,25.79
2018-06-15T21:02:42.804Z,25.79
2018-06-15T21:05:08.786Z,25.79
2018-06-15T21:07:34.790Z,25.79
2018-06-15T21:10:00.761Z,25.79
2018-06-15T21:12:26.779Z,25.79
2018-06-15T21:14:52.770Z,25.79
2018-06-15T21:17:18.755Z,25.79
2018-06-15T21:19:44.864Z,25.79
2018-06-15T21:22:10.801Z,25.78
2018-06-15T21:24:36.791Z,25.77
2018-06-15T21:27:02.784Z,25.76
2018-06-15T21:29:28.777Z,25.76
2018-06-15T21:31:55.069Z,25.76
2018-06-15T21:34:21.022Z,25.75
2018-06-15T21:36:47.008Z,25.74
2018-06-15T21:39:12.988Z,25.74
2018-06-15T21:41:38.969Z,25.73
2018-06-15T21:44:04.950Z,25.72
2018-06-15T21:46:30.929Z,25.72
2018-06-15T21:48:56.913Z,25.71
2018-06-15T21:51:22.897Z,25.71
2018-06-15T21:53:48.877Z,25.70
2018-06-15T21:56:14.867Z,25.69
2018-06-15T21:58:40.866Z,25.70
2018-06-15T22:01:06.842Z,25.69
2018-06-15T22:03:32.827Z,25.69
2018-06-15T22:05:58.801Z,25.69
2018-06-15T22:08:24.799Z,25.68
2018-06-15T22:10:50.781Z,25.67
2018-06-15T22:13:16.774Z,25.67
2018-06-15T22:15:42.753Z,25.67
2018-06-15T22:18:08.742Z,25.67
2018-06-15T22:20:34.729Z,25.65
2018-06-15T22:23:00.710Z,25.65
2018-06-15T22:25:26.705Z,25.65
2018-06-15T22:27:52.688Z,25.65
2018-06-15T22:30:18.681Z,25.64
2018-06-15T22:32:44.665Z,25.64
2018-06-15T22:35:10.679Z,25.63
2018-06-15T22:37:36.695Z,25.62
2018-06-15T22:40:02.648Z,25.62
2018-06-15T22:42:28.629Z,25.62
2018-06-15T22:44:54.609Z,25.61
2018-06-15T22:47:20.591Z,25.62
2018-06-15T22:49:46.576Z,25.61
2018-06-15T22:52:12.556Z,25.62
2018-06-15T22:54:38.548Z,25.61
2018-06-15T22:57:04.538Z,25.60
2018-06-15T22:59:30.522Z,25.60
2018-06-15T23:01:56.493Z,25.60
2018-06-15T23:04:22.475Z,25.59
2018-06-15T23:06:48.457Z,25.60
2018-06-15T23:09:14.456Z,25.59
2018-06-15T23:11:40.435Z,25.59
2018-06-15T23:14:06.431Z,25.58
2018-06-15T23:16:32.414Z,25.58
2018-06-15T23:18:58.400Z,25.58
2018-06-15T23:21:24.386Z,25.58
2018-06-15T23:23:50.385Z,25.58
2018-06-15T23:26:16.370Z,25.57
2018-06-15T23:28:42.366Z,25.58
2018-06-15T23:31:08.352Z,25.57
2018-06-15T23:33:34.343Z,25.56
2018-06-15T23:36:00.327Z,25.57
2018-06-15T23:38:26.318Z,25.56
2018-06-15T23:40:52.303Z,25.57
2018-06-15T23:43:18.298Z,25.56
2018-06-15T23:45:44.275Z,25.56
2018-06-15T23:48:10.260Z,25.55
2018-06-15T23:50:36.239Z,25.55
2018-06-15T23:53:02.216Z,25.55
2018-06-15T23:55:28.198Z,25.55
2018-06-15T23:57:54.188Z,25.55
